Flight Track Log - Related Links

Times and Time Zones

All times are in EDT time to prevent confusion due to time zone crossing. See the OPT469 flight status page for this flight to view local times or setup timezone preferences in your user account.

Time Position Orientation Groundspeed Altitude Reporting Facility
EDT Latitude Longitude Course Direction KTS MPH feet Rate Location/Type
Sat 12:23:15 AM 30.2977 -97.6357 73° East  Level FlightAware Approximate
Sat 12:24:11 AM 30.3081 -97.5967 40° Northeast 243 280 6,500  Level Houston Center
Sat 12:25:11 AM 30.3647 -97.5425 44° Northeast 263 303 8,900 2,550 Climbing Houston Center
Sat 12:26:11 AM 30.4217 -97.4783 45° Northeast 270 311 11,600 2,800 Climbing Houston Center
Sat 12:27:11 AM 30.4767 -97.4139 46° Northeast 276 318 14,500 2,400 Climbing Houston Center
Sat 12:28:11 AM 30.5228 -97.3589 47° Northeast 276 318 16,400 2,017 Climbing Houston Center
Sat 12:29:10 AM 30.5778 -97.2897 45° Northeast 276 318 18,500 1,800 Climbing Houston Center
Sat 12:30:11 AM 30.6325 -97.2250 46° Northeast 271 312 20,000 744 Climbing Houston Center
Sat 12:31:11 AM 30.6939 -97.1511 45° Northeast 296 341 20,000  Level Houston Center
Sat 12:32:11 AM 30.7664 -97.0658 46° Northeast 340 391 20,000  Level Houston Center
Sat 12:33:47 AM 30.8908 -96.9147 45° Northeast 376 433 20,000  Level Fort Worth Center
Sat 12:34:47 AM 30.9636 -96.8294 46° Northeast 376 433 20,000  Level Fort Worth Center
Sat 12:35:47 AM 31.0342 -96.7442 45° Northeast 367 422 20,000  Level Fort Worth Center
Sat 12:36:47 AM 31.1044 -96.6611 24° Northeast 361 415 20,000  Level Fort Worth Center
Sat 12:37:47 AM 31.1942 -96.6144 356° North 342 394 20,000  Level Fort Worth Center
Sat 12:38:47 AM 31.2922 -96.6233 352° North 332 382 20,000  Level Fort Worth Center
Sat 12:39:47 AM 31.3925 -96.6394 352° North 344 396 20,000  Level Fort Worth Center
Sat 12:40:47 AM 31.4886 -96.6558 354° North 349 402 20,000  Level Fort Worth Center
Sat 12:41:47 AM 31.5847 -96.6672 353° North 354 407 20,000 -50 Level Fort Worth Center
Sat 12:42:47 AM 31.6808 -96.6811 353° North 349 402 19,900 -550 Descending Fort Worth Center
Sat 12:43:47 AM 31.7769 -96.6950 352° North 349 402 18,900 -1,050 Descending Fort Worth Center
Sat 12:44:47 AM 31.8794 -96.7111 353° North 354 407 17,800 -1,000 Descending Fort Worth Center
Sat 12:45:47 AM 31.9756 -96.7253 358° North 354 407 16,900 -950 Descending Fort Worth Center
Sat 12:46:28 AM 32.0372 -96.7275 354° North 350 403 16,200 -1,259 Descending FAA TRACON SMA TRACON (SMA)
Sat 12:47:08 AM 32.1039 -96.7364 353° North 344 396 15,200 -1,519 Descending FAA TRACON SMA TRACON (SMA)
Sat 12:47:47 AM 32.1614 -96.7444 352° North 339 390 14,200 -2,506 Descending FAA TRACON SMA TRACON (SMA)
Sat 12:48:27 AM 32.2228 -96.7542 352° North 320 368 11,900 -3,481 Descending FAA TRACON SMA TRACON (SMA)
Sat 12:49:08 AM 32.2808 -96.7639 353° North 301 346 9,500 -2,625 Descending FAA TRACON SMA TRACON (SMA)
Sat 12:49:47 AM 32.3275 -96.7706 356° North 274 315 8,400 -1,663 Descending FAA TRACON SMA TRACON (SMA)
Sat 12:50:31 AM 32.3822 -96.7750 North 258 297 7,200 -1,650 Descending FAA TRACON SMA TRACON (SMA)
Sat 12:51:07 AM 32.4258 -96.7742 North 252 290 6,200 -1,737 Descending FAA TRACON SMA TRACON (SMA)
Sat 12:51:47 AM 32.4736 -96.7728 360° North 248 285 5,000 -1,630 Descending FAA TRACON SMA TRACON (SMA)
Sat 12:52:28 AM 32.5150 -96.7731 North 242 278 4,000 -1,481 Descending FAA TRACON SMA TRACON (SMA)
Sat 12:53:08 AM 32.5617 -96.7711 North 240 276 3,000 -759 Descending FAA TRACON SMA TRACON (SMA)
Sat 12:53:47 AM 32.6006 -96.7706 360° North 227 261 3,000 -76 Level FAA TRACON SMA TRACON (SMA)
Sat 12:54:27 AM 32.6422 -96.7703 359° North 216 249 2,900 -375 Descending FAA TRACON SMA TRACON (SMA)
Sat 12:55:07 AM 32.6856 -96.7714 358° North 222 255 2,500 -296 Descending FAA TRACON SMA TRACON (SMA)
Sat 12:55:48 AM 32.7283 -96.7728 355° North 223 257 2,500 -148 Level FAA TRACON SMA TRACON (SMA)
Sat 12:56:28 AM 32.7619 -96.7761 347° North 197 227 2,300 -532 Descending FAA TRACON SMA TRACON (SMA)
Sat 12:57:07 AM 32.7883 -96.7836 327° Northwest 137 158 1,800 -684 Descending FAA TRACON SMA TRACON (SMA)
Sat 12:57:47 AM 32.8053 -96.7967 318° Northwest 115 132 1,400 -519 Descending FAA TRACON SMA TRACON (SMA)
Sat 12:58:28 AM 32.8228 -96.8156 316° Northwest 121 139 1,100 -593 Descending FAA TRACON SMA TRACON (SMA)
Sat 12:59:08 AM 32.8392 -96.8342 316° Northwest 118 136 600 -750 Descending FAA TRACON SMA TRACON (SMA)

Login

Don't have an account? Register now (free) for customized features, flight alerts, and more!